Time;durP1;ratioP1;P1;durP2;ratioP2;P2;SDS_P1;SDS_P2;PMS_P1;PMS_P2;Temp;Humidity;BMP_temperature;BMP_pressure;BME280_temperature;BME280_humidity;BME280_pressure;Samples;Min_cycle;Max_cycle;Signal;HPM_P1;HPM_P2
2022/03/03 00:02:05;;;;;;;31.02;16.20;;;;;;;5.50;59.38;99726.16;5095853;28;20056;-76
2022/03/03 00:04:30;;;;;;;31.93;16.33;;;;;;;5.54;59.97;99717.06;5097270;28;20259;-76
2022/03/03 00:06:56;;;;;;;33.43;16.63;;;;;;;5.51;60.12;99711.25;5094972;28;20039;-76
2022/03/03 00:09:21;;;;;;;31.83;15.90;;;;;;;5.43;59.83;99717.97;5095923;28;20020;-76
2022/03/03 00:11:47;;;;;;;34.83;17.73;;;;;;;5.48;60.04;99714.97;5096699;28;20039;-76
2022/03/03 00:14:12;;;;;;;28.57;16.63;;;;;;;5.24;60.30;99706.53;5095446;28;20044;-76
2022/03/03 00:16:38;;;;;;;33.87;18.03;;;;;;;5.37;59.95;99708.00;5095051;28;20024;-76
2022/03/03 00:19:04;;;;;;;31.43;16.10;;;;;;;5.35;59.81;99688.09;5096422;28;20736;-76
2022/03/03 00:21:29;;;;;;;29.07;16.23;;;;;;;5.31;60.30;99711.13;5094119;28;20040;-76
2022/03/03 00:23:55;;;;;;;31.37;16.53;;;;;;;5.13;60.76;99695.13;5094994;28;20069;-77
2022/03/03 00:26:21;;;;;;;29.93;16.37;;;;;;;5.26;61.25;99709.88;5097125;28;20023;-76
2022/03/03 00:28:46;;;;;;;28.13;16.10;;;;;;;5.07;61.11;99692.16;5095859;28;20040;-76
2022/03/03 00:31:11;;;;;;;31.30;16.10;;;;;;;5.17;61.58;99702.72;5095212;28;20036;-77
2022/03/03 00:33:37;;;;;;;31.43;16.47;;;;;;;5.13;61.19;99705.59;5096294;28;20051;-76
2022/03/03 00:36:02;;;;;;;32.43;16.17;;;;;;;5.01;62.25;99695.31;5094487;28;20433;-76
2022/03/03 00:38:28;;;;;;;30.00;16.50;;;;;;;5.06;62.38;99701.00;5096410;28;20028;-76
2022/03/03 00:40:54;;;;;;;26.87;15.63;;;;;;;5.06;62.11;99687.88;5095901;28;20096;-76
2022/03/03 00:43:19;;;;;;;32.37;16.53;;;;;;;5.10;61.47;99697.16;5095432;28;20107;-76
2022/03/03 00:45:45;;;;;;;27.50;15.40;;;;;;;4.93;61.77;99690.69;5095163;28;20061;-76
2022/03/03 00:48:11;;;;;;;33.43;16.63;;;;;;;4.77;62.29;99691.13;5095500;28;20066;-76
2022/03/03 00:50:36;;;;;;;30.57;15.67;;;;;;;4.70;62.70;99673.41;5094992;28;20360;-76
2022/03/03 00:53:02;;;;;;;31.53;16.63;;;;;;;4.66;61.92;99664.97;5095548;28;20055;-76
2022/03/03 00:55:27;;;;;;;30.03;16.47;;;;;;;4.81;62.39;99683.84;5095844;28;20097;-76
2022/03/03 00:57:53;;;;;;;27.97;14.87;;;;;;;4.69;61.88;99666.50;5093826;28;20036;-76
2022/03/03 01:00:18;;;;;;;26.93;15.07;;;;;;;4.74;61.83;99686.13;5096293;28;20040;-75
2022/03/03 01:02:51;;;;;;;27.93;14.80;;;;;;;4.87;61.22;99685.97;5093852;28;20024;-76
2022/03/03 01:05:17;;;;;;;24.43;14.03;;;;;;;4.81;61.53;99682.06;5094067;28;20079;-76
2022/03/03 01:07:43;;;;;;;28.07;15.00;;;;;;;4.77;61.69;99682.44;5095218;28;20024;-76
2022/03/03 01:10:10;;;;;;;23.60;14.30;;;;;;;4.83;61.41;99679.31;5095282;28;20118;-76
2022/03/03 01:12:36;;;;;;;27.20;14.93;;;;;;;4.80;61.29;99687.44;5094185;28;20040;-76
2022/03/03 01:15:06;;;;;;;31.53;15.17;;;;;;;4.81;61.65;99682.06;5094727;28;20066;-76
2022/03/03 01:17:32;;;;;;;24.67;13.87;;;;;;;4.97;60.12;99680.78;5095747;28;20074;-76
2022/03/03 01:19:57;;;;;;;28.20;14.43;;;;;;;4.65;61.17;99659.84;5092420;28;20087;-76
2022/03/03 01:22:23;;;;;;;28.77;16.20;;;;;;;4.86;61.07;99667.72;5095437;28;20031;-76
2022/03/03 01:24:49;;;;;;;35.93;14.63;;;;;;;4.81;60.61;99661.06;5093474;28;20032;-75
2022/03/03 01:27:14;;;;;;;25.80;14.43;;;;;;;4.70;60.82;99657.66;5093163;28;20252;-76
2022/03/03 01:29:40;;;;;;;29.67;14.37;;;;;;;4.84;61.00;99657.34;5094825;28;20043;-76
2022/03/03 01:32:06;;;;;;;25.40;13.77;;;;;;;4.68;61.40;99664.84;5094069;28;20036;-76
2022/03/03 01:34:32;;;;;;;20.37;12.60;;;;;;;4.55;61.94;99651.91;5094968;28;20059;-76
2022/03/03 01:36:58;;;;;;;26.93;13.60;;;;;;;4.75;62.06;99673.84;5093863;28;20037;-76
2022/03/03 01:39:23;;;;;;;27.03;13.87;;;;;;;4.69;61.40;99659.47;5093339;28;20034;-76
2022/03/03 01:41:49;;;;;;;25.83;13.40;;;;;;;4.73;61.14;99665.28;5094966;28;20024;-76
2022/03/03 01:44:15;;;;;;;29.17;14.67;;;;;;;4.58;61.11;99656.06;5093682;28;20052;-76
2022/03/03 01:46:54;;;;;;;26.10;14.27;;;;;;;4.46;61.66;99626.44;5094328;28;20032;-76
2022/03/03 01:49:21;;;;;;;27.30;13.23;;;;;;;4.64;61.70;99658.19;5092810;28;20036;-76
2022/03/03 01:51:46;;;;;;;24.23;12.87;;;;;;;4.70;61.35;99649.78;5095554;28;20043;-76
2022/03/03 01:54:13;;;;;;;24.17;12.97;;;;;;;4.59;61.79;99655.94;5094148;28;20314;-76
2022/03/03 01:56:43;;;;;;;20.90;12.20;;;;;;;4.72;61.75;99658.38;5093627;28;20032;-76
2022/03/03 01:59:09;;;;;;;25.40;13.77;;;;;;;4.61;61.34;99658.44;5092412;28;20111;-76
2022/03/03 02:01:36;;;;;;;25.53;12.63;;;;;;;4.61;61.29;99661.88;5095269;28;20334;-76
2022/03/03 02:04:07;;;;;;;27.47;13.43;;;;;;;4.43;61.53;99631.94;5092656;28;20036;-76
2022/03/03 02:08:58;;;;;;;28.30;13.87;;;;;;;4.59;61.41;99666.41;5092821;28;20063;-76
2022/03/03 02:11:23;;;;;;;23.07;13.20;;;;;;;4.80;61.02;99661.19;5093224;28;20300;-75
2022/03/03 02:13:49;;;;;;;23.87;12.63;;;;;;;4.67;60.79;99666.63;5093373;28;20031;-76
2022/03/03 02:16:14;;;;;;;24.03;12.57;;;;;;;4.64;60.96;99664.25;5092824;28;20138;-76
2022/03/03 02:18:41;;;;;;;28.63;13.37;;;;;;;4.65;60.82;99665.91;5094437;28;20054;-76
2022/03/03 02:21:10;;;;;;;22.67;13.37;;;;;;;4.70;60.89;99666.38;5095121;28;20085;-76
2022/03/03 02:23:36;;;;;;;26.40;13.00;;;;;;;4.56;61.85;99666.66;5092006;28;20040;-76
2022/03/03 02:26:02;;;;;;;25.50;12.47;;;;;;;4.46;61.17;99637.75;5093763;28;20046;-76
2022/03/03 02:28:28;;;;;;;24.57;13.27;;;;;;;4.61;61.26;99651.38;5094816;28;20103;-75
2022/03/03 02:30:53;;;;;;;23.87;12.40;;;;;;;4.67;61.12;99661.38;5093546;28;20266;-76
2022/03/03 02:33:19;;;;;;;26.00;12.43;;;;;;;4.55;61.46;99653.69;5097445;28;20059;-76
2022/03/03 02:35:44;;;;;;;23.43;12.50;;;;;;;4.47;61.66;99647.28;5097625;28;20336;-75
2022/03/03 02:38:10;;;;;;;21.27;12.13;;;;;;;4.48;62.11;99661.22;5096223;28;20055;-76
2022/03/03 02:40:35;;;;;;;25.63;12.93;;;;;;;4.56;61.65;99645.69;5096410;28;20039;-76
2022/03/03 02:43:01;;;;;;;27.47;13.93;;;;;;;4.56;62.41;99657.97;5098149;28;20086;-76
2022/03/03 02:45:26;;;;;;;24.37;13.33;;;;;;;4.49;61.62;99648.00;5097433;28;20100;-76
2022/03/03 02:47:52;;;;;;;23.27;13.03;;;;;;;4.61;61.89;99647.94;5096563;28;20032;-76
2022/03/03 02:50:26;;;;;;;27.60;13.47;;;;;;;4.67;61.58;99653.50;5097490;28;20024;-76
2022/03/03 02:52:52;;;;;;;;;;;;;;;4.62;61.59;99658.31;5098739;28;20050;-76
2022/03/03 02:55:17;;;;;;;25.77;13.63;;;;;;;4.48;62.41;99646.31;5096209;28;20102;-76
2022/03/03 02:57:56;;;;;;;26.93;13.20;;;;;;;4.69;61.86;99650.75;5098018;28;20016;-76
2022/03/03 03:00:24;;;;;;;24.53;13.33;;;;;;;4.32;62.71;99645.06;5096692;28;20042;-76
2022/03/03 03:02:50;;;;;;;26.53;14.10;;;;;;;4.34;63.01;99646.63;5114650;28;20062;-76
2022/03/03 03:05:15;;;;;;;26.47;13.57;;;;;;;4.37;62.99;99651.63;5097499;28;20036;-76
2022/03/03 03:07:41;;;;;;;31.60;14.63;;;;;;;4.54;62.58;99649.41;5097368;28;20020;-76
2022/03/03 03:10:07;;;;;;;25.13;13.67;;;;;;;4.45;62.76;99646.56;5097842;28;20332;-76
2022/03/03 03:12:33;;;;;;;24.83;14.43;;;;;;;4.51;62.74;99645.25;5096518;28;20067;-76
2022/03/03 03:14:59;;;;;;;26.50;14.60;;;;;;;4.41;62.31;99625.97;5098619;28;20372;-76
2022/03/03 03:17:24;;;;;;;24.13;13.87;;;;;;;4.28;62.42;99630.56;5096988;28;20254;-75
2022/03/03 03:19:50;;;;;;;22.23;13.83;;;;;;;4.46;61.86;99624.63;5096950;28;20044;-76
2022/03/03 03:22:15;;;;;;;27.53;13.97;;;;;;;4.52;62.19;99644.28;5094929;28;20310;-76
2022/03/03 03:24:40;;;;;;;24.57;12.87;;;;;;;4.51;61.89;99647.88;5096898;28;20388;-76
2022/03/03 03:27:06;;;;;;;24.87;13.73;;;;;;;4.59;61.92;99644.59;5097187;28;20038;-76
2022/03/03 03:29:32;;;;;;;27.87;12.83;;;;;;;4.64;61.58;99648.50;5096783;28;20040;-76
2022/03/03 03:31:57;;;;;;;24.97;14.20;;;;;;;4.65;62.00;99644.09;5094363;28;20095;-76
2022/03/03 03:34:23;;;;;;;25.37;13.23;;;;;;;4.44;62.02;99629.19;5097229;28;20016;-76
2022/03/03 03:36:48;;;;;;;25.53;13.10;;;;;;;4.43;62.22;99624.06;5095240;28;20095;-76
2022/03/03 03:39:14;;;;;;;23.17;13.83;;;;;;;4.52;62.36;99643.44;5095789;28;20023;-76
2022/03/03 03:41:39;;;;;;;28.87;15.37;;;;;;;4.48;62.43;99601.75;5098598;28;20315;-76
2022/03/03 03:44:05;;;;;;;26.33;14.13;;;;;;;4.58;62.13;99635.91;5096025;28;20285;-76
2022/03/03 03:46:30;;;;;;;23.00;13.47;;;;;;;4.37;62.74;99622.78;5096493;28;20244;-76
2022/03/03 03:48:56;;;;;;;23.33;12.80;;;;;;;4.53;62.27;99640.69;5096976;28;20339;-77
2022/03/03 03:51:21;;;;;;;25.27;13.20;;;;;;;4.48;62.38;99641.06;5097877;28;20261;-76
2022/03/03 03:53:47;;;;;;;26.90;13.37;;;;;;;4.43;62.41;99640.63;5095060;28;20314;-76
2022/03/03 03:56:12;;;;;;;24.97;13.40;;;;;;;4.52;61.81;99632.97;5097750;28;20027;-76
2022/03/03 03:58:38;;;;;;;22.97;12.60;;;;;;;4.55;61.81;99636.16;5095784;28;20566;-76
2022/03/03 04:01:03;;;;;;;27.20;13.67;;;;;;;4.50;62.05;99635.72;5093929;28;20217;-76
2022/03/03 04:03:29;;;;;;;22.53;12.80;;;;;;;4.44;61.78;99621.31;5095560;28;20041;-76
2022/03/03 04:05:54;;;;;;;23.43;13.80;;;;;;;4.52;61.53;99632.97;5094456;28;20098;-76
2022/03/03 04:08:20;;;;;;;22.90;12.40;;;;;;;4.35;62.21;99627.31;5096662;28;20074;-77
2022/03/03 04:10:47;;;;;;;26.17;13.50;;;;;;;4.34;61.78;99636.13;5095756;28;20120;-76
2022/03/03 04:13:12;;;;;;;21.50;12.30;;;;;;;4.38;62.05;99640.16;5095344;28;20028;-76
2022/03/03 04:15:38;;;;;;;24.30;13.53;;;;;;;4.52;61.20;99648.69;5097051;28;20081;-76
2022/03/03 04:18:03;;;;;;;25.53;13.57;;;;;;;4.67;60.59;99647.44;5094651;28;20051;-76
2022/03/03 04:20:29;;;;;;;24.53;12.07;;;;;;;4.41;60.77;99624.19;5095858;28;20028;-75
2022/03/03 04:22:54;;;;;;;22.47;12.63;;;;;;;4.57;61.02;99643.91;5096128;28;20036;-75
2022/03/03 04:25:20;;;;;;;29.37;13.90;;;;;;;4.50;61.37;99643.56;5093846;28;20024;-75
2022/03/03 04:27:45;;;;;;;28.70;14.27;;;;;;;4.40;61.81;99624.31;5096876;28;20027;-76
2022/03/03 04:30:11;;;;;;;25.17;14.90;;;;;;;4.60;61.42;99644.47;5095619;28;20032;-76
2022/03/03 04:32:40;;;;;;;30.33;14.60;;;;;;;4.63;61.62;99638.16;5094522;28;20043;-76
2022/03/03 04:35:08;;;;;;;25.80;14.67;;;;;;;4.60;61.55;99648.91;5094287;28;20054;-75
2022/03/03 04:37:34;;;;;;;28.43;13.90;;;;;;;4.45;61.63;99624.78;5096566;28;20043;-76
2022/03/03 04:40:00;;;;;;;25.07;13.90;;;;;;;4.53;61.35;99624.97;5095149;28;20055;-76
2022/03/03 04:42:25;;;;;;;32.78;13.73;;;;;;;4.72;61.09;99637.38;5096408;28;20066;-76
2022/03/03 04:44:51;;;;;;;27.63;13.87;;;;;;;4.57;61.44;99620.31;5094307;28;20025;-76
2022/03/03 04:47:16;;;;;;;25.83;13.50;;;;;;;4.39;61.93;99617.41;5094576;28;20028;-76
2022/03/03 04:49:42;;;;;;;23.17;12.47;;;;;;;4.34;61.81;99628.28;5094341;28;20332;-76
2022/03/03 04:52:08;;;;;;;30.80;14.80;;;;;;;4.43;62.03;99632.75;5096398;28;20293;-76
2022/03/03 04:54:33;;;;;;;31.23;15.47;;;;;;;4.30;62.32;99620.78;5093358;28;20031;-76
2022/03/03 04:56:59;;;;;;;36.33;15.93;;;;;;;4.32;62.09;99609.22;5094062;28;20035;-75
2022/03/03 04:59:24;;;;;;;31.50;15.73;;;;;;;4.37;62.52;99625.41;5094665;28;20346;-76
2022/03/03 05:01:51;;;;;;;28.60;16.07;;;;;;;4.29;62.81;99632.22;5094353;28;20020;-75
2022/03/03 05:04:19;;;;;;;28.63;15.27;;;;;;;4.28;63.07;99636.63;5094831;28;20039;-76
2022/03/03 05:06:46;;;;;;;28.33;14.80;;;;;;;4.31;62.62;99638.16;5095278;28;20036;-77
2022/03/03 05:09:12;;;;;;;28.93;14.93;;;;;;;4.46;62.47;99640.38;5094400;28;20031;-76
2022/03/03 05:11:38;;;;;;;28.70;14.53;;;;;;;4.39;62.01;99633.97;5095569;28;20318;-76
2022/03/03 05:14:04;;;;;;;28.80;14.90;;;;;;;4.52;62.23;99632.97;5093585;28;20094;-76
2022/03/03 05:16:29;;;;;;;31.07;16.23;;;;;;;4.44;62.26;99631.81;5095050;28;20245;-76
2022/03/03 05:18:54;;;;;;;27.47;15.80;;;;;;;4.39;62.89;99628.72;5094691;28;20048;-76
2022/03/03 05:21:20;;;;;;;27.53;15.33;;;;;;;4.59;62.22;99642.81;5094315;28;20253;-76
2022/03/03 05:23:45;;;;;;;28.97;15.40;;;;;;;4.52;61.93;99620.69;5095259;28;20089;-76
2022/03/03 05:26:11;;;;;;;31.17;14.53;;;;;;;4.64;61.90;99642.44;5093024;28;20344;-76
2022/03/03 05:28:36;;;;;;;32.70;16.97;;;;;;;4.66;61.92;99641.34;5093277;28;20023;-76
2022/03/03 05:31:02;;;;;;;30.30;16.27;;;;;;;4.77;61.76;99640.47;5095465;28;20256;-77
2022/03/03 05:33:29;;;;;;;27.73;15.63;;;;;;;4.68;61.54;99647.31;5093298;28;20044;-76
2022/03/03 05:35:59;;;;;;;24.83;15.48;;;;;;;4.63;62.17;99638.16;5094024;28;20217;-76
2022/03/03 05:38:28;;;;;;;29.70;15.27;;;;;;;4.68;61.97;99639.44;5092976;28;20506;-75
2022/03/03 05:40:54;;;;;;;30.80;15.23;;;;;;;4.76;61.54;99636.19;5091025;28;20027;-76
2022/03/03 05:43:19;;;;;;;25.73;14.67;;;;;;;4.61;61.61;99633.03;5095644;28;20247;-75
2022/03/03 05:45:47;;;;;;;28.73;15.23;;;;;;;4.51;62.77;99626.06;5093258;28;20037;-76
2022/03/03 05:48:16;;;;;;;32.07;15.10;;;;;;;4.58;62.60;99628.03;5093775;28;20165;-76
2022/03/03 05:50:41;;;;;;;28.43;15.90;;;;;;;4.64;62.77;99630.16;5093329;28;20047;-76
2022/03/03 05:53:07;;;;;;;30.07;16.83;;;;;;;4.76;61.72;99620.44;5093317;28;20031;-76
2022/03/03 05:55:36;;;;;;;27.57;16.27;;;;;;;4.97;61.10;99634.38;5092873;28;20054;-76
2022/03/03 05:58:03;;;;;;;29.23;16.10;;;;;;;5.08;60.71;99633.47;5094159;28;20028;-76
2022/03/03 06:00:30;;;;;;;29.77;15.53;;;;;;;4.96;60.56;99632.72;5094071;28;20075;-76
2022/03/03 06:02:55;;;;;;;30.37;16.37;;;;;;;5.24;60.53;99644.38;5093661;28;20028;-76
2022/03/03 06:05:26;;;;;;;29.50;15.93;;;;;;;5.16;60.85;99640.69;5094793;28;20023;-76
2022/03/03 06:07:54;;;;;;;28.73;15.70;;;;;;;5.23;60.77;99649.75;5099813;28;20085;-76
2022/03/03 06:10:25;;;;;;;28.43;15.80;;;;;;;5.34;60.10;99649.66;5097082;28;20248;-76
2022/03/03 06:13:23;;;;;;;33.30;16.60;;;;;;;5.37;59.80;99652.03;5099774;28;20027;-76
2022/03/03 06:15:49;;;;;;;33.53;16.73;;;;;;;5.31;60.22;99649.91;5074423;28;20337;-76
2022/03/03 06:18:15;;;;;;;37.67;16.73;;;;;;;5.41;59.87;99643.75;5097616;28;20084;-76
2022/03/03 06:20:43;;;;;;;31.38;16.38;;;;;;;5.43;59.89;99639.19;5098722;28;20036;-76
2022/03/03 06:23:09;;;;;;;31.17;16.70;;;;;;;5.48;59.85;99646.69;5097641;28;20273;-76
2022/03/03 06:25:35;;;;;;;35.47;16.57;;;;;;;5.44;59.17;99650.53;5097836;28;20024;-76
2022/03/03 06:28:02;;;;;;;32.53;16.58;;;;;;;5.55;58.63;99653.06;5098713;28;20036;-76
2022/03/03 06:30:30;;;;;;;38.17;19.08;;;;;;;5.58;58.80;99660.69;5096314;28;20028;-76
2022/03/03 06:32:55;;;;;;;38.67;19.02;;;;;;;5.73;58.26;99656.72;5097423;28;20342;-76
2022/03/03 06:35:21;;;;;;;32.17;15.53;;;;;;;6.17;57.93;99654.66;5097576;28;20102;-76
2022/03/03 06:37:46;;;;;;;27.17;14.77;;;;;;;6.31;57.16;99661.34;5098372;28;20028;-76
2022/03/03 06:40:12;;;;;;;28.45;14.85;;;;;;;6.53;56.68;99662.88;5096526;28;20050;-76
2022/03/03 06:42:37;;;;;;;26.23;15.38;;;;;;;6.57;56.00;99666.91;5097911;28;20020;-76
2022/03/03 06:45:03;;;;;;;29.40;14.75;;;;;;;6.46;55.72;99656.50;5098424;28;20046;-76
2022/03/03 06:47:28;;;;;;;31.08;15.73;;;;;;;6.97;55.31;99664.94;5096315;28;20075;-76
2022/03/03 06:49:54;;;;;;;30.50;16.38;;;;;;;7.53;54.99;99669.38;5098239;28;20032;-76
2022/03/03 06:52:26;;;;;;;23.25;13.70;;;;;;;7.62;53.23;99672.97;5096884;28;20039;-76
2022/03/03 06:54:52;;;;;;;27.40;15.52;;;;;;;7.76;52.76;99661.94;5096693;28;20352;-76
2022/03/03 06:57:21;;;;;;;24.10;13.65;;;;;;;8.06;52.31;99670.53;5097726;28;20244;-76
2022/03/03 06:59:49;;;;;;;24.80;14.30;;;;;;;8.31;52.45;99680.34;5096479;28;20268;-76
2022/03/03 07:02:14;;;;;;;26.30;14.98;;;;;;;8.52;51.77;99673.03;5097877;28;20243;-76
2022/03/03 07:04:40;;;;;;;34.05;16.17;;;;;;;8.09;53.09;99660.50;5096657;28;20031;-76
2022/03/03 07:07:06;;;;;;;31.48;15.20;;;;;;;7.54;53.76;99657.03;5097833;28;20036;-76
2022/03/03 07:09:32;;;;;;;33.30;16.85;;;;;;;7.33;55.42;99688.84;5096230;28;20283;-76
2022/03/03 07:11:59;;;;;;;26.13;14.82;;;;;;;7.04;55.32;99692.34;5097490;28;20058;-76
2022/03/03 07:14:25;;;;;;;37.42;15.85;;;;;;;6.94;54.98;99688.06;5098390;28;20026;-76
2022/03/03 07:16:51;;;;;;;41.92;16.58;;;;;;;6.96;55.22;99700.13;5095416;28;20036;-76
2022/03/03 07:19:40;;;;;;;24.92;15.52;;;;;;;7.13;55.07;99697.75;5095837;28;20359;-76
2022/03/03 07:22:07;;;;;;;31.75;15.88;;;;;;;7.43;55.55;99694.09;5097536;28;20063;-76
2022/03/03 07:25:12;;;;;;;26.13;15.18;;;;;;;7.93;54.55;99691.97;5095310;28;20086;-76
2022/03/03 07:27:43;;;;;;;26.00;14.20;;;;;;;8.50;52.06;99682.91;5096055;28;20063;-76
2022/03/03 07:30:12;;;;;;;28.02;14.20;;;;;;;8.38;51.54;99691.22;5095342;28;20040;-76
2022/03/03 07:32:51;;;;;;;31.65;14.15;;;;;;;8.00;52.69;99687.75;5096594;28;20255;-76
2022/03/03 07:35:16;;;;;;;25.45;14.70;;;;;;;7.73;53.39;99685.13;5096712;28;20047;-76
2022/03/03 07:37:52;;;;;;;24.80;14.82;;;;;;;7.59;53.89;99681.16;5096049;28;20310;-76
2022/03/03 07:40:18;;;;;;;39.08;17.70;;;;;;;7.49;55.04;99685.63;5098165;28;20366;-76
2022/03/03 07:42:45;;;;;;;27.33;15.15;;;;;;;7.60;54.86;99688.91;5098562;28;20028;-79
2022/03/03 07:45:11;;;;;;;31.33;15.23;;;;;;;7.66;54.82;99683.06;5102591;28;20230;-78
2022/03/03 07:47:38;;;;;;;28.70;15.00;;;;;;;7.80;54.42;99683.56;5099947;28;20353;-76
2022/03/03 07:50:05;;;;;;;30.67;15.00;;;;;;;7.89;54.02;99674.78;5100496;28;20061;-76
2022/03/03 07:52:31;;;;;;;30.17;15.00;;;;;;;7.88;53.48;99691.56;5101196;28;20032;-76
2022/03/03 07:54:59;;;;;;;25.35;14.20;;;;;;;7.91;53.84;99678.91;5101560;28;20081;-76
2022/03/03 07:57:33;;;;;;;24.63;15.13;;;;;;;7.77;53.92;99689.94;5102376;28;20354;-76
2022/03/03 08:00:05;;;;;;;28.92;16.27;;;;;;;8.00;54.04;99695.66;5101185;28;20040;-76
2022/03/03 08:02:32;;;;;;;26.23;15.43;;;;;;;8.02;54.44;99691.06;5100939;28;20032;-76
2022/03/03 08:05:00;;;;;;;28.33;14.63;;;;;;;8.10;54.30;99690.34;5101304;28;20031;-76
2022/03/03 08:07:27;;;;;;;32.85;14.98;;;;;;;8.23;54.18;99693.47;5101914;28;20055;-76
2022/03/03 08:09:59;;;;;;;41.83;16.48;;;;;;;8.45;54.57;99694.91;5102283;28;20051;-76
2022/03/03 08:12:25;;;;;;;29.77;14.95;;;;;;;8.06;55.01;99678.44;5098260;28;20298;-77
2022/03/03 08:14:53;;;;;;;22.25;13.25;;;;;;;8.07;54.53;99685.38;5102050;28;20036;-76
2022/03/03 08:17:19;;;;;;;25.00;12.88;;;;;;;7.74;55.49;99689.41;5098639;28;20359;-76
2022/03/03 08:19:45;;;;;;;24.15;13.55;;;;;;;7.72;54.88;99686.09;5101706;28;20049;-76
2022/03/03 08:22:14;;;;;;;21.30;12.88;;;;;;;8.01;54.54;99669.16;5100444;28;20360;-76
2022/03/03 08:24:43;;;;;;;24.48;14.32;;;;;;;7.95;54.78;99690.00;5100057;28;20020;-76
2022/03/03 08:27:11;;;;;;;31.73;15.95;;;;;;;8.16;55.68;99689.75;5100405;28;20058;-76
2022/03/03 08:29:37;;;;;;;24.75;13.57;;;;;;;8.20;54.24;99685.84;5100763;28;20035;-76
2022/03/03 08:32:08;;;;;;;25.63;13.48;;;;;;;8.07;55.51;99662.47;5099716;28;20232;-76
2022/03/03 08:34:45;;;;;;;25.60;12.45;;;;;;;7.98;55.29;99687.06;5099660;28;20039;-76
2022/03/03 08:37:23;;;;;;;25.90;13.50;;;;;;;8.13;55.40;99680.31;5101067;28;20027;-76
2022/03/03 08:39:52;;;;;;;19.48;11.65;;;;;;;7.91;55.02;99686.00;5095391;28;20032;-76
2022/03/03 08:42:24;;;;;;;24.77;12.95;;;;;;;7.92;55.89;99675.31;5100604;28;20056;-76
2022/03/03 08:44:52;;;;;;;24.00;12.80;;;;;;;7.84;56.03;99662.03;5101361;28;20070;-76
2022/03/03 08:47:20;;;;;;;27.27;14.00;;;;;;;7.77;57.29;99689.94;5099736;28;20035;-76
2022/03/03 08:49:56;;;;;;;60.03;23.05;;;;;;;7.65;56.68;99691.94;5100109;28;20294;-76
2022/03/03 08:52:22;;;;;;;42.65;19.40;;;;;;;7.68;56.85;99685.56;5098399;28;20030;-76
2022/03/03 08:54:47;;;;;;;33.67;17.58;;;;;;;7.93;57.65;99705.16;5100976;28;20225;-76
2022/03/03 08:57:13;;;;;;;27.20;13.75;;;;;;;7.43;55.93;99678.28;5099818;28;20095;-76
2022/03/03 08:59:38;;;;;;;23.10;12.63;;;;;;;7.53;56.60;99700.16;5098877;28;20383;-76
2022/03/03 09:02:04;;;;;;;23.70;13.75;;;;;;;7.49;56.76;99704.06;5101018;28;20065;-76
2022/03/03 09:04:30;;;;;;;25.60;12.77;;;;;;;7.56;55.66;99700.72;5099063;28;20036;-76
2022/03/03 09:06:56;;;;;;;30.77;14.30;;;;;;;7.29;56.05;99669.03;5101165;28;20062;-76
2022/03/03 09:09:21;;;;;;;21.45;12.43;;;;;;;7.59;57.02;99696.97;5098605;28;20032;-76
2022/03/03 09:11:47;;;;;;;28.00;14.43;;;;;;;7.79;56.63;99695.06;5100083;28;20042;-76
2022/03/03 09:14:12;;;;;;;24.30;14.48;;;;;;;7.72;55.69;99672.91;5099412;28;20034;-76
2022/03/03 09:16:38;;;;;;;24.80;14.63;;;;;;;7.93;54.51;99689.31;5099952;28;20068;-76
2022/03/03 09:19:04;;;;;;;23.95;13.02;;;;;;;8.03;54.73;99687.47;5099625;28;20036;-76
2022/03/03 09:21:29;;;;;;;26.45;13.70;;;;;;;8.41;54.23;99688.25;5098922;28;20047;-77
2022/03/03 09:23:55;;;;;;;23.45;13.90;;;;;;;8.68;53.65;99697.94;5100403;28;20094;-77
2022/03/03 09:26:21;;;;;;;19.08;11.45;;;;;;;8.45;53.21;99695.72;5099377;28;20027;-76
2022/03/03 09:28:46;;;;;;;23.70;13.77;;;;;;;8.69;52.77;99697.78;5099346;28;20032;-76
2022/03/03 09:31:12;;;;;;;18.60;10.55;;;;;;;8.72;51.71;99696.66;5098208;28;20032;-76
2022/03/03 09:33:38;;;;;;;27.98;12.27;;;;;;;8.61;51.79;99690.63;5099971;28;20028;-76
2022/03/03 09:36:04;;;;;;;21.35;11.10;;;;;;;8.48;51.39;99678.78;5100784;28;20317;-76
2022/03/03 09:38:29;;;;;;;18.83;9.30;;;;;;;8.47;50.43;99685.84;5098781;28;20031;-76
2022/03/03 09:40:55;;;;;;;23.55;8.80;;;;;;;8.45;50.92;99690.47;5098179;28;20051;-76
2022/03/03 09:43:21;;;;;;;18.10;9.63;;;;;;;8.11;50.56;99663.00;5098544;28;20248;-76
2022/03/03 09:45:47;;;;;;;16.85;8.80;;;;;;;8.38;50.91;99685.94;5100533;28;20023;-76
2022/03/03 09:48:12;;;;;;;19.60;10.18;;;;;;;8.22;50.86;99683.88;5098643;28;20202;-76
2022/03/03 09:50:40;;;;;;;23.27;10.02;;;;;;;8.41;51.41;99683.00;5099140;28;20035;-76
2022/03/03 09:53:10;;;;;;;20.00;10.38;;;;;;;8.49;51.31;99691.81;5100764;28;20027;-76
2022/03/03 09:55:38;;;;;;;19.92;9.65;;;;;;;8.57;50.28;99696.34;5099121;28;20046;-76
2022/03/03 09:58:06;;;;;;;18.65;9.27;;;;;;;8.59;50.38;99694.38;5098403;28;20063;-76
2022/03/03 10:00:36;;;;;;;22.58;10.20;;;;;;;8.55;50.41;99699.13;5098350;28;20043;-77
2022/03/03 10:03:09;;;;;;;19.55;9.73;;;;;;;8.72;50.87;99691.38;5097820;28;20063;-76
2022/03/03 10:05:38;;;;;;;17.73;10.10;;;;;;;8.93;51.21;99690.06;5098260;28;20020;-77
2022/03/03 10:08:11;;;;;;;27.83;12.40;;;;;;;8.94;50.42;99688.25;5100010;28;20107;-76
2022/03/03 10:10:40;;;;;;;18.05;9.52;;;;;;;9.09;50.43;99678.78;5098301;28;20159;-77
2022/03/03 10:13:06;;;;;;;20.30;10.52;;;;;;;9.22;50.45;99691.59;5099010;28;20047;-76
2022/03/03 10:15:33;;;;;;;19.02;10.60;;;;;;;8.95;49.31;99676.72;5098874;28;20031;-77
2022/03/03 10:18:10;;;;;;;21.58;11.63;;;;;;;8.72;48.79;99684.28;5097856;28;20016;-77
2022/03/03 10:21:00;;;;;;;20.52;11.40;;;;;;;8.61;50.12;99679.22;5097950;28;20318;-77
2022/03/03 10:23:36;;;;;;;24.42;12.90;;;;;;;8.74;50.99;99669.13;5098228;28;20024;-77
2022/03/03 10:26:05;;;;;;;19.38;8.90;;;;;;;8.71;49.88;99679.97;5091341;28;20149;-76
2022/03/03 10:28:33;;;;;;;30.40;13.30;;;;;;;8.57;50.18;99678.69;5093062;28;20205;-76
2022/03/03 10:31:06;;;;;;;22.02;9.73;;;;;;;8.91;50.36;99670.91;5094727;28;20063;-76
2022/03/03 10:33:40;;;;;;;21.50;11.02;;;;;;;8.75;49.79;99670.78;5092692;28;20051;-76
2022/03/03 10:36:19;;;;;;;23.45;12.00;;;;;;;8.44;49.81;99659.78;5091405;28;20099;-76
2022/03/03 10:38:53;;;;;;;19.85;11.77;;;;;;;8.39;49.32;99671.75;5092231;28;20028;-76
2022/03/03 10:41:46;;;;;;;21.70;10.75;;;;;;;8.34;49.97;99664.28;5093684;28;20041;-76
2022/03/03 10:44:21;;;;;;;20.60;10.65;;;;;;;8.17;50.88;99652.69;5089278;28;20032;-76
2022/03/03 10:47:07;;;;;;;18.23;10.20;;;;;;;8.31;49.88;99664.53;5094804;28;20036;-76
2022/03/03 10:49:38;;;;;;;22.08;9.35;;;;;;;8.80;50.07;99644.75;5096599;28;20209;-76
2022/03/03 10:52:20;;;;;;;16.30;8.93;;;;;;;9.10;49.42;99642.66;5098787;28;20065;-76
2022/03/03 10:54:55;;;;;;;13.48;8.70;;;;;;;9.09;47.20;99652.38;5100504;28;20215;-76
2022/03/03 10:57:43;;;;;;;17.98;9.38;;;;;;;9.07;48.10;99664.91;5101580;28;20035;-76
2022/03/03 11:00:23;;;;;;;17.20;11.18;;;;;;;9.25;47.38;99646.38;5102744;28;20048;-77
2022/03/03 11:02:54;;;;;;;18.77;10.13;;;;;;;9.28;47.45;99648.72;5103854;28;20024;-77
2022/03/03 11:05:22;;;;;;;16.73;10.05;;;;;;;9.20;47.69;99638.91;5102417;28;20023;-76
2022/03/03 11:07:49;;;;;;;18.42;7.85;;;;;;;9.23;46.70;99637.78;5103793;28;20095;-76
2022/03/03 11:10:20;;;;;;;18.77;8.50;;;;;;;9.12;45.89;99645.97;5101098;28;20027;-77
2022/03/03 11:12:46;;;;;;;16.70;6.68;;;;;;;8.97;45.56;99611.38;5101601;28;20020;-77
2022/03/03 11:15:14;;;;;;;17.25;8.45;;;;;;;8.88;46.61;99642.16;5101979;28;20051;-76
2022/03/03 11:17:40;;;;;;;21.42;10.07;;;;;;;8.63;47.55;99638.50;5099154;28;20020;-76
2022/03/03 11:20:09;;;;;;;21.73;9.82;;;;;;;8.52;47.63;99645.81;5101107;28;20360;-76
2022/03/03 11:22:34;;;;;;;23.23;10.43;;;;;;;8.39;47.25;99637.47;5118095;28;20040;-76
2022/03/03 11:25:05;;;;;;;18.23;8.98;;;;;;;8.34;47.24;99637.91;5102268;28;20203;-76
2022/03/03 11:27:33;;;;;;;19.70;10.48;;;;;;;8.56;47.11;99618.16;5102855;28;20028;-76
2022/03/03 11:30:15;;;;;;;18.83;8.68;;;;;;;8.77;48.68;99644.22;5101954;28;20028;-76
2022/03/03 11:32:41;;;;;;;29.08;12.32;;;;;;;8.62;47.78;99636.00;5100432;28;20289;-76